Time;durP1;ratioP1;P1;durP2;ratioP2;P2;SDS_P1;SDS_P2;PMS_P1;PMS_P2;Temp;Humidity;BMP_temperature;BMP_pressure;BME280_temperature;BME280_humidity;BME280_pressure;Samples;Min_cycle;Max_cycle;Signal;HPM_P1;HPM_P2
2021/12/04 00:00:22;;;;;;;16.02;10.07;;;;;;;10.69;65.62;98828.81;4975565;28;20066;-94
2021/12/04 00:02:48;;;;;;;18.20;10.63;;;;;;;10.71;65.87;98828.69;4975715;28;20027;-94
2021/12/04 00:05:14;;;;;;;15.57;9.98;;;;;;;10.69;65.87;98810.44;4975492;28;20034;-94
2021/12/04 00:07:39;;;;;;;17.00;10.57;;;;;;;10.56;65.80;98806.50;4966580;28;20110;-94
2021/12/04 00:10:06;;;;;;;14.38;9.48;;;;;;;10.57;65.93;98819.47;4975452;28;20035;-94
2021/12/04 00:12:33;;;;;;;19.45;10.18;;;;;;;10.57;66.17;98822.09;4975188;28;20062;-95
2021/12/04 00:14:59;;;;;;;17.60;10.27;;;;;;;10.58;65.91;98826.34;4976081;28;20031;-95
2021/12/04 00:17:25;;;;;;;15.50;9.73;;;;;;;10.61;66.59;98820.03;4977090;28;20477;-94
2021/12/04 00:19:51;;;;;;;14.85;9.93;;;;;;;10.62;66.40;98809.34;4976509;28;20031;-93
2021/12/04 00:22:16;;;;;;;20.05;9.55;;;;;;;10.65;66.79;98803.84;4974676;28;20489;-94
2021/12/04 00:24:42;;;;;;;16.58;10.32;;;;;;;10.69;66.43;98804.38;4975850;28;20042;-94
2021/12/04 00:27:08;;;;;;;15.93;9.13;;;;;;;10.70;66.32;98801.63;4957669;28;20034;-95
2021/12/04 00:29:33;;;;;;;12.90;8.27;;;;;;;10.72;66.10;98804.06;4959502;28;20027;-95
2021/12/04 00:32:04;;;;;;;14.45;9.05;;;;;;;10.75;66.09;98808.22;4968441;28;20493;-93
2021/12/04 00:34:32;;;;;;;17.33;9.65;;;;;;;10.79;66.50;98809.59;4975517;28;20047;-95
2021/12/04 00:37:51;;;;;;;17.17;10.00;;;;;;;10.81;66.72;98805.03;4975869;28;20066;-94
2021/12/04 00:50:38;;;;;;;13.80;7.13;;;;;;;11.00;67.43;98773.41;4975638;28;20042;-94
2021/12/04 00:53:04;;;;;;;15.30;7.00;;;;;;;11.04;67.59;98769.53;4976112;28;20031;-95
2021/12/04 00:55:29;;;;;;;12.90;6.97;;;;;;;11.01;67.49;98761.91;4975843;28;20082;-94
2021/12/04 00:57:55;;;;;;;10.30;6.22;;;;;;;11.05;67.42;98759.84;4976262;28;20481;-94
2021/12/04 01:00:20;;;;;;;10.73;6.63;;;;;;;11.07;67.62;98756.06;4976088;28;20030;-94
2021/12/04 01:02:46;;;;;;;11.07;6.10;;;;;;;11.08;67.51;98763.00;4975547;28;20389;-94
2021/12/04 01:05:11;;;;;;;11.70;7.00;;;;;;;11.11;67.45;98752.19;4975838;28;20093;-94
2021/12/04 01:07:37;;;;;;;12.85;6.80;;;;;;;11.13;67.44;98754.66;4975267;28;20402;-95
2021/12/04 01:10:06;;;;;;;11.13;6.40;;;;;;;11.13;67.42;98749.41;4976077;28;20022;-94
2021/12/04 01:12:32;;;;;;;10.98;6.05;;;;;;;11.18;67.72;98752.44;4958867;28;20286;-94
2021/12/04 01:14:57;;;;;;;10.25;5.25;;;;;;;11.20;67.51;98757.53;4976193;28;20316;-95
2021/12/04 01:17:23;;;;;;;11.02;6.38;;;;;;;11.24;67.50;98757.09;4978122;28;20468;-93
2021/12/04 01:19:48;;;;;;;7.55;5.15;;;;;;;11.26;67.75;98754.31;4980000;28;20027;-95
2021/12/04 01:22:13;;;;;;;9.20;5.68;;;;;;;11.28;67.65;98758.44;4979610;28;20465;-95
2021/12/04 01:24:39;;;;;;;11.98;6.00;;;;;;;11.34;67.82;98761.47;4979725;28;20010;-95
2021/12/04 01:27:04;;;;;;;12.50;5.72;;;;;;;11.38;68.26;98753.13;4979585;28;20038;-94
2021/12/04 01:29:30;;;;;;;12.88;6.15;;;;;;;11.46;68.54;98755.81;4978745;28;20037;-94
2021/12/04 01:31:55;;;;;;;12.82;6.75;;;;;;;11.50;68.25;98757.16;4978665;28;20058;-95
2021/12/04 01:34:21;;;;;;;15.93;6.20;;;;;;;11.53;68.19;98756.03;4979034;28;20027;-94
2021/12/04 01:36:46;;;;;;;8.32;5.50;;;;;;;11.57;68.15;98746.03;4979736;28;20389;-94
2021/12/04 01:39:11;;;;;;;11.45;7.28;;;;;;;11.56;68.35;98750.47;4975661;28;20086;-94
2021/12/04 01:41:37;;;;;;;10.70;6.57;;;;;;;11.63;68.55;98734.91;4979545;28;20027;-94
2021/12/04 01:44:05;;;;;;;12.32;6.72;;;;;;;11.68;68.38;98732.66;4979886;28;20031;-95
2021/12/04 01:46:32;;;;;;;11.45;7.28;;;;;;;11.75;68.42;98723.19;4979624;28;20362;-94
2021/12/04 01:48:57;;;;;;;18.20;7.38;;;;;;;11.77;68.56;98734.41;4978967;28;20037;-94
2021/12/04 01:51:24;;;;;;;14.40;7.65;;;;;;;11.77;68.69;98736.19;4961700;28;20039;-94
2021/12/04 01:53:49;;;;;;;13.38;7.07;;;;;;;11.85;68.52;98736.25;4979419;28;20027;-94
2021/12/04 01:56:16;;;;;;;11.07;6.97;;;;;;;11.89;68.31;98738.44;4978974;28;20034;-94
2021/12/04 01:58:43;;;;;;;13.73;7.38;;;;;;;11.92;68.52;98729.41;4979269;28;20031;-93
2021/12/04 02:01:09;;;;;;;13.45;6.72;;;;;;;11.95;68.21;98725.66;4979228;28;20469;-95
2021/12/04 02:03:35;;;;;;;10.77;6.13;;;;;;;11.96;68.28;98729.94;4978580;28;20404;-94
2021/12/04 02:06:01;;;;;;;11.43;6.88;;;;;;;11.95;68.07;98726.50;4966392;28;20038;-94
2021/12/04 02:08:27;;;;;;;9.93;6.82;;;;;;;11.94;68.09;98726.66;4966968;28;20023;-94
2021/12/04 02:10:56;;;;;;;16.25;6.70;;;;;;;11.92;68.17;98737.31;4978748;28;20030;-94
2021/12/04 02:13:22;;;;;;;12.98;7.40;;;;;;;11.94;68.02;98729.28;4977816;28;20037;-96
2021/12/04 02:15:49;;;;;;;13.15;7.15;;;;;;;11.96;68.29;98732.56;4979208;28;20473;-94
2021/12/04 02:18:17;;;;;;;11.27;6.32;;;;;;;12.02;68.38;98735.41;4978308;28;20039;-94
2021/12/04 02:20:43;;;;;;;14.48;6.43;;;;;;;12.00;68.21;98736.53;4978820;28;20018;-93
2021/12/04 02:23:09;;;;;;;10.88;5.57;;;;;;;12.00;68.20;98726.84;4978869;28;20441;-94
2021/12/04 02:25:36;;;;;;;12.15;6.20;;;;;;;11.96;68.11;98725.50;4978870;28;20077;-94
2021/12/04 02:28:04;;;;;;;13.82;7.25;;;;;;;12.01;68.04;98727.69;4978545;28;20062;-94
2021/12/04 02:30:35;;;;;;;13.30;6.47;;;;;;;11.93;68.03;98738.13;4979388;28;20034;-95
2021/12/04 02:33:04;;;;;;;;;;;;;;;12.00;67.86;98737.38;4978881;28;20027;-94
2021/12/04 02:35:30;;;;;;;11.93;7.03;;;;;;;11.93;68.07;98732.88;4978050;28;19918;-94
2021/12/04 02:37:55;;;;;;;9.60;5.68;;;;;;;12.00;67.58;98726.84;4978844;28;20039;-94
2021/12/04 02:40:23;;;;;;;8.98;5.60;;;;;;;12.03;67.71;98728.34;4978309;28;20037;-94
2021/12/04 02:42:49;;;;;;;9.48;5.20;;;;;;;12.05;67.98;98723.78;4978584;28;20487;-95
2021/12/04 02:45:15;;;;;;;11.13;5.68;;;;;;;12.08;68.05;98726.06;4979072;28;20037;-95
2021/12/04 02:47:41;;;;;;;9.55;5.45;;;;;;;12.09;68.08;98727.72;4978294;28;20106;-93
2021/12/04 02:50:10;;;;;;;11.70;6.28;;;;;;;12.14;67.87;98728.06;4977521;28;20033;-95
2021/12/04 02:52:35;;;;;;;10.88;5.97;;;;;;;12.17;68.08;98730.41;4973099;28;20015;-95
2021/12/04 02:55:01;;;;;;;10.70;5.80;;;;;;;12.23;67.97;98732.41;4978417;28;20041;-95
2021/12/04 02:57:28;;;;;;;9.70;5.55;;;;;;;12.09;68.76;98735.63;4978066;28;20031;-93
2021/12/04 02:59:55;;;;;;;18.17;6.07;;;;;;;11.94;69.22;98732.72;4976604;28;20440;-95
2021/12/04 03:02:22;;;;;;;11.57;5.82;;;;;;;12.03;69.15;98731.00;4977846;28;20034;-95
2021/12/04 03:04:50;;;;;;;13.57;5.78;;;;;;;12.09;69.29;98730.38;4977723;28;20030;-94
2021/12/04 03:07:17;;;;;;;10.73;5.57;;;;;;;12.28;68.45;98724.91;4977521;28;20026;-93
2021/12/04 03:09:43;;;;;;;10.82;5.60;;;;;;;12.34;68.11;98728.69;4977829;28;20039;-93
2021/12/04 03:12:10;;;;;;;18.02;6.78;;;;;;;12.35;68.12;98734.78;4977722;28;20916;-94
2021/12/04 03:14:36;;;;;;;11.60;6.30;;;;;;;12.37;68.28;98727.56;4977735;28;20026;-93
2021/12/04 03:17:02;;;;;;;20.85;6.13;;;;;;;12.36;68.20;98732.00;4977411;28;20030;-93
2021/12/04 03:19:27;;;;;;;16.95;7.50;;;;;;;12.40;68.36;98737.75;4977767;28;20027;-93
2021/12/04 03:21:54;;;;;;;13.07;7.28;;;;;;;12.39;68.28;98739.56;4978491;28;20507;-94
2021/12/04 03:24:20;;;;;;;15.32;7.82;;;;;;;12.22;68.59;98740.47;4978133;28;20023;-94
2021/12/04 03:26:49;;;;;;;14.68;7.72;;;;;;;12.25;68.71;98730.44;4977629;28;20045;-94
2021/12/04 03:29:18;;;;;;;14.43;7.43;;;;;;;12.23;68.16;98726.34;4978323;28;20101;-96
2021/12/04 03:42:56;;;;;;;11.98;7.55;;;;;;;12.22;68.66;98708.88;4969195;28;20048;-94
2021/12/04 03:45:21;;;;;;;10.63;7.00;;;;;;;12.25;68.46;98709.41;4977054;28;20034;-94
2021/12/04 03:47:49;;;;;;;10.85;6.43;;;;;;;12.20;68.62;98703.78;4975976;28;20438;-92
2021/12/04 03:50:15;;;;;;;15.30;7.95;;;;;;;12.21;68.52;98692.28;4973024;28;20023;-95
2021/12/04 03:52:41;;;;;;;13.25;7.88;;;;;;;12.28;68.20;98697.72;4977046;28;20050;-95
2021/12/04 03:55:07;;;;;;;12.30;6.10;;;;;;;12.35;67.82;98697.94;4977459;28;20114;-95
2021/12/04 03:57:34;;;;;;;12.18;6.78;;;;;;;12.34;67.88;98699.72;4977211;28;20034;-95
2021/12/04 04:00:00;;;;;;;78.22;28.63;;;;;;;12.33;67.83;98694.66;4977541;28;20567;-95
2021/12/04 04:02:26;;;;;;;10.05;5.90;;;;;;;12.34;68.08;98685.75;4976859;28;20038;-95
2021/12/04 04:04:52;;;;;;;11.80;7.40;;;;;;;12.32;68.23;98695.63;4973043;28;20115;-95
2021/12/04 04:07:18;;;;;;;86.60;44.28;;;;;;;12.32;68.68;98687.72;4969963;28;20125;-96
2021/12/04 04:09:44;;;;;;;11.88;5.70;;;;;;;12.34;68.57;98691.00;4976262;28;20042;-93
2021/12/04 04:12:09;;;;;;;10.98;5.25;;;;;;;12.32;68.74;98687.72;4974045;28;20027;-94
2021/12/04 04:14:35;;;;;;;33.50;11.68;;;;;;;12.10;68.83;98687.28;4976416;28;20114;-95
2021/12/04 04:17:01;;;;;;;11.63;5.40;;;;;;;12.28;68.54;98692.47;4976963;28;20481;-94
2021/12/04 04:19:26;;;;;;;11.98;4.80;;;;;;;12.29;68.39;98692.31;4976488;28;20109;-95
2021/12/04 04:21:56;;;;;;;8.73;5.85;;;;;;;12.32;68.38;98685.09;4970714;28;20031;-95
2021/12/04 04:24:23;;;;;;;11.55;5.32;;;;;;;12.27;68.20;98691.66;4964767;28;20029;-95
2021/12/04 04:26:48;;;;;;;10.93;5.65;;;;;;;12.31;68.54;98692.16;4976828;28;20026;-95
2021/12/04 04:29:14;;;;;;;14.25;6.07;;;;;;;12.27;68.19;98689.00;4976386;28;20057;-94
2021/12/04 04:31:48;;;;;;;32.53;12.75;;;;;;;12.29;68.44;98694.94;4973382;28;20448;-94
2021/12/04 04:34:23;;;;;;;8.68;6.15;;;;;;;12.36;68.32;98697.78;4971520;28;20030;-94
2021/12/04 04:37:03;;;;;;;12.52;7.65;;;;;;;12.24;68.19;98701.66;4966215;28;20023;-94
2021/12/04 05:12:11;;;;;;;5.65;2.65;;;;;;;11.57;67.35;98731.13;4977859;28;20029;-94
2021/12/04 05:14:41;;;;;;;4.95;1.90;;;;;;;11.37;67.25;98735.69;4978293;28;20041;-94
2021/12/04 05:17:15;;;;;;;6.15;2.00;;;;;;;11.57;66.41;98746.88;4977185;28;20034;-94
2021/12/04 05:19:53;;;;;;;5.28;1.75;;;;;;;11.39;66.90;98741.59;4976763;28;20040;-95
2021/12/04 05:22:20;;;;;;;7.32;1.77;;;;;;;11.45;66.49;98754.19;4975050;28;20459;-94
2021/12/04 05:24:45;;;;;;;6.88;1.98;;;;;;;11.15;66.51;98754.53;4976344;28;20505;-94
2021/12/04 05:27:11;;;;;;;6.53;2.00;;;;;;;11.06;66.97;98758.88;4974945;28;20035;-95
2021/12/04 05:29:37;;;;;;;5.38;1.30;;;;;;;10.87;67.17;98770.31;4975980;28;20497;-94
2021/12/04 05:32:05;;;;;;;10.82;2.28;;;;;;;11.18;65.94;98777.88;4975748;28;20077;-95
2021/12/04 05:34:31;;;;;;;6.75;1.63;;;;;;;11.02;66.39;98774.09;4962680;28;20039;-94
2021/12/04 05:36:58;;;;;;;4.05;1.38;;;;;;;11.16;65.84;98775.41;4975635;28;20396;-94
2021/12/04 05:39:23;;;;;;;11.13;1.75;;;;;;;11.20;65.46;98771.50;4975148;28;20113;-94
2021/12/04 05:41:48;;;;;;;5.82;1.55;;;;;;;11.23;65.34;98773.00;4975457;28;20134;-96
2021/12/04 05:44:16;;;;;;;3.28;1.02;;;;;;;11.24;65.30;98777.28;4976237;28;20465;-95
2021/12/04 05:49:34;;;;;;;5.97;2.85;;;;;;;10.89;65.74;98784.94;4946396;28;20027;-94
2021/12/04 05:52:10;;;;;;;6.75;1.58;;;;;;;11.06;65.31;98790.38;4971232;28;20094;-94
2021/12/04 05:57:04;;;;;;;8.68;1.50;;;;;;;11.02;64.90;98800.34;4971864;28;20031;-95
2021/12/04 05:59:30;;;;;;;4.18;1.23;;;;;;;11.02;65.14;98802.97;4975566;28;20027;-95
2021/12/04 06:01:56;;;;;;;8.32;1.38;;;;;;;10.90;64.70;98799.72;4975280;28;20102;-94
2021/12/04 06:04:21;;;;;;;7.15;1.48;;;;;;;10.99;65.07;98805.88;4974977;28;20533;-94
2021/12/04 06:06:47;;;;;;;9.32;1.65;;;;;;;10.98;64.57;98799.00;4971950;28;20035;-94
2021/12/04 06:09:12;;;;;;;12.45;1.80;;;;;;;10.85;64.95;98806.38;4960565;28;20034;-94
2021/12/04 06:11:38;;;;;;;21.98;3.97;;;;;;;10.79;64.21;98814.84;4974023;28;20078;-94
2021/12/04 06:14:04;;;;;;;5.80;1.40;;;;;;;10.65;65.03;98818.75;4980108;28;20042;-94
2021/12/04 06:16:31;;;;;;;7.07;1.10;;;;;;;10.75;64.88;98823.97;4978856;28;20038;-94
2021/12/04 06:18:58;;;;;;;10.45;1.95;;;;;;;10.82;64.12;98822.41;4979285;28;20045;-94
2021/12/04 06:24:08;;;;;;;9.90;1.50;;;;;;;10.66;64.07;98831.75;4973460;28;20053;-94
2021/12/04 06:26:35;;;;;;;18.05;2.38;;;;;;;10.60;63.94;98820.97;4959308;29;20569;-94
2021/12/04 06:29:01;;;;;;;13.07;1.35;;;;;;;10.50;64.27;98834.13;4961538;28;20030;-94
2021/12/04 06:31:27;;;;;;;11.93;1.35;;;;;;;10.51;64.18;98833.16;4978790;28;20054;-95
2021/12/04 06:33:53;;;;;;;13.32;1.50;;;;;;;10.32;64.15;98834.84;4976760;28;20453;-95
2021/12/04 06:36:21;;;;;;;5.80;1.27;;;;;;;10.32;63.35;98832.22;4959856;28;20074;-95
2021/12/04 06:38:46;;;;;;;10.20;2.08;;;;;;;10.43;64.01;98840.94;4978725;28;20023;-93
2021/12/04 06:41:12;;;;;;;10.63;1.80;;;;;;;10.10;64.48;98829.91;4978751;28;20041;-95
2021/12/04 06:43:41;;;;;;;13.48;1.85;;;;;;;9.86;63.73;98825.91;4979287;28;20257;-93
2021/12/04 06:46:08;;;;;;;9.32;1.60;;;;;;;9.93;62.74;98829.63;4978473;28;20031;-94
2021/12/04 06:48:57;;;;;;;12.90;2.00;;;;;;;9.71;62.62;98829.91;4977196;28;20632;-94
2021/12/04 06:51:33;;;;;;;11.90;1.98;;;;;;;10.00;62.47;98844.81;4973713;28;20031;-94
2021/12/04 06:56:31;;;;;;;12.60;1.90;;;;;;;9.73;63.62;98838.44;4978770;28;20102;-94
2021/12/04 06:58:57;;;;;;;9.75;1.90;;;;;;;9.95;63.14;98847.84;4962769;28;20031;-93
2021/12/04 07:01:22;;;;;;;9.38;1.75;;;;;;;9.89;62.44;98846.63;4970553;28;20035;-94
2021/12/04 07:03:49;;;;;;;10.27;2.13;;;;;;;9.50;63.58;98846.56;4973946;28;20034;-93
2021/12/04 07:06:14;;;;;;;14.98;3.17;;;;;;;9.79;63.10;98853.63;4967606;28;20388;-93
2021/12/04 07:08:39;;;;;;;11.07;1.48;;;;;;;9.88;62.79;98854.63;4978394;28;20031;-94
2021/12/04 07:11:06;;;;;;;15.60;1.83;;;;;;;9.78;61.88;98870.34;4976806;28;20082;-94
2021/12/04 07:13:32;;;;;;;22.88;3.10;;;;;;;9.63;61.94;98863.84;4977448;28;20045;-93
2021/12/04 07:16:02;;;;;;;15.73;1.67;;;;;;;9.60;62.31;98866.75;4977694;28;20042;-94
2021/12/04 07:18:29;;;;;;;13.18;1.63;;;;;;;9.16;62.39;98885.34;4974577;28;20062;-93
2021/12/04 07:20:54;;;;;;;24.05;2.08;;;;;;;9.49;62.53;98878.16;4963439;28;20398;-93
2021/12/04 07:23:20;;;;;;;7.43;1.80;;;;;;;9.63;61.72;98871.69;4977537;28;20474;-93
2021/12/04 07:25:46;;;;;;;19.55;2.28;;;;;;;9.35;61.53;98871.50;4977632;28;20034;-93
2021/12/04 07:28:11;;;;;;;10.57;1.98;;;;;;;9.37;62.99;98864.34;4972991;28;20031;-93
2021/12/04 07:30:37;;;;;;;8.27;1.10;;;;;;;9.59;62.16;98867.69;4971226;28;20031;-94
2021/12/04 07:33:02;;;;;;;13.13;1.90;;;;;;;9.44;61.98;98868.09;4979501;28;20044;-94
2021/12/04 07:35:28;;;;;;;14.32;2.15;;;;;;;8.96;64.08;98876.59;4964527;28;20027;-93
2021/12/04 07:37:53;;;;;;;14.25;2.05;;;;;;;9.16;63.09;98871.44;4958478;29;20023;-94
2021/12/04 07:40:19;;;;;;;14.18;1.90;;;;;;;9.45;63.21;98898.53;4973344;28;20031;-93
2021/12/04 07:42:45;;;;;;;10.30;2.08;;;;;;;9.25;62.96;98902.06;4975840;28;20477;-93
2021/12/04 07:45:10;;;;;;;13.43;2.13;;;;;;;9.00;63.17;98882.41;4976079;28;20066;-92
2021/12/04 07:47:36;;;;;;;11.30;1.85;;;;;;;9.43;62.30;98874.28;4957504;28;20462;-93
2021/12/04 07:50:05;;;;;;;20.08;2.15;;;;;;;9.38;62.03;98871.25;4972330;28;20031;-93
2021/12/04 07:52:30;;;;;;;16.42;2.05;;;;;;;9.52;62.31;98877.88;4975842;28;20034;-92
2021/12/04 07:54:56;;;;;;;10.77;1.77;;;;;;;9.30;61.72;98879.75;4976967;28;20021;-94
2021/12/04 07:57:22;;;;;;;10.43;1.77;;;;;;;9.39;62.29;98888.59;4974971;28;21345;-95
2021/12/04 07:59:48;;;;;;;10.32;1.42;;;;;;;9.39;62.06;98888.59;4971108;28;20117;-95
2021/12/04 08:02:13;;;;;;;11.43;1.60;;;;;;;9.35;61.38;98912.59;4976602;28;20094;-94
2021/12/04 08:04:38;;;;;;;10.10;1.80;;;;;;;9.37;61.94;98918.53;4977302;28;20031;-95
2021/12/04 08:07:04;;;;;;;12.90;2.20;;;;;;;9.28;62.82;98922.75;4973448;28;20034;-93
2021/12/04 08:09:29;;;;;;;10.55;1.80;;;;;;;9.19;61.70;98934.03;4977313;28;20511;-93
2021/12/04 08:11:55;;;;;;;16.20;3.75;;;;;;;9.22;63.11;98934.59;4952545;28;20046;-94
2021/12/04 08:14:20;;;;;;;8.00;1.70;;;;;;;9.30;62.14;98941.78;4967413;28;20031;-94
2021/12/04 08:16:49;;;;;;;12.50;1.95;;;;;;;9.07;62.50;98935.91;4967177;28;20552;-95
2021/12/04 08:19:15;;;;;;;13.52;1.60;;;;;;;9.22;61.31;98939.84;4976508;28;20038;-93
2021/12/04 08:21:40;;;;;;;13.32;1.80;;;;;;;9.38;61.03;98948.97;4976213;28;20437;-95
2021/12/04 08:24:06;;;;;;;14.80;1.40;;;;;;;9.28;61.26;98941.09;4976449;28;20025;-94
2021/12/04 08:26:37;;;;;;;10.90;1.67;;;;;;;9.36;61.92;98949.13;4975830;28;20042;-94
2021/12/04 08:29:03;;;;;;;6.30;1.35;;;;;;;9.42;61.72;98959.09;4972382;28;20054;-93
2021/12/04 08:31:28;;;;;;;12.07;1.95;;;;;;;9.24;62.22;98958.03;4974465;28;20035;-91
2021/12/04 08:33:54;;;;;;;10.45;2.00;;;;;;;9.19;62.43;98976.75;4945918;28;20027;-93
2021/12/04 08:36:21;;;;;;;6.82;2.22;;;;;;;9.39;61.87;98987.31;4974993;28;20104;-92
2021/12/04 08:38:47;;;;;;;7.70;1.10;;;;;;;9.50;61.63;98979.38;4960981;28;20118;-93
2021/12/04 08:41:14;;;;;;;10.40;2.00;;;;;;;9.31;61.62;98990.59;4963206;28;20027;-92
2021/12/04 08:43:40;;;;;;;11.25;1.38;;;;;;;8.99;61.95;98991.53;4954999;28;20461;-94
2021/12/04 08:46:06;;;;;;;12.63;1.70;;;;;;;9.49;61.91;98991.63;4959269;28;20042;-93
2021/12/04 08:48:33;;;;;;;11.43;1.75;;;;;;;9.43;62.20;98997.41;4976353;28;20097;-94
2021/12/04 08:50:59;;;;;;;10.00;1.90;;;;;;;9.64;60.99;98999.16;4966477;28;20608;-95
2021/12/04 08:53:26;;;;;;;11.07;2.00;;;;;;;9.66;60.84;98987.56;4957841;28;20078;-94
2021/12/04 08:55:52;;;;;;;16.58;2.58;;;;;;;9.37;60.87;98990.06;4975738;28;20038;-94
2021/12/04 08:58:17;;;;;;;18.33;1.60;;;;;;;9.52;61.64;98996.63;4968350;28;20030;-93
2021/12/04 09:00:49;;;;;;;18.98;1.90;;;;;;;9.66;60.71;98994.59;4954645;28;20058;-94
2021/12/04 09:03:22;;;;;;;16.55;1.63;;;;;;;9.79;61.31;98989.13;4959723;28;20023;-94
2021/12/04 09:05:50;;;;;;;18.33;1.88;;;;;;;9.81;61.78;98992.44;4952807;29;20130;-90
2021/12/04 09:08:17;;;;;;;9.32;1.63;;;;;;;9.54;62.27;98996.50;4955608;28;20023;-94
2021/12/04 09:10:44;;;;;;;14.10;2.10;;;;;;;9.62;62.17;99007.13;4968710;28;20086;-92
2021/12/04 09:13:11;;;;;;;15.75;3.83;;;;;;;9.60;62.38;99005.63;4968671;28;20026;-95
2021/12/04 09:15:38;;;;;;;12.32;1.70;;;;;;;9.69;61.74;99008.25;4976645;28;20030;-93
2021/12/04 09:18:03;;;;;;;15.32;3.33;;;;;;;9.73;61.77;99008.81;4974242;28;20034;-92
2021/12/04 09:20:30;;;;;;;12.50;1.40;;;;;;;9.41;63.13;99012.41;4957120;28;20035;-93
2021/12/04 09:22:56;;;;;;;15.70;1.65;;;;;;;9.75;61.51;99014.75;4972853;28;20030;-91
2021/12/04 09:25:24;;;;;;;16.48;2.53;;;;;;;9.64;61.79;99010.47;4973481;28;20124;-91
2021/12/04 09:28:17;;;;;;;13.93;2.13;;;;;;;9.85;61.52;99009.53;4972326;28;20022;-92
2021/12/04 09:36:42;;;;;;;12.50;1.88;;;;;;;9.94;61.39;99006.13;4969339;28;20166;-93
2021/12/04 10:01:47;;;;;;;10.10;1.80;;;;;;;11.72;57.22;99012.72;4979254;28;20169;-93
2021/12/04 10:12:35;;;;;;;11.95;1.35;;;;;;;14.41;49.54;99017.41;4970353;28;20080;-93
2021/12/04 10:33:49;;;;;;;4.35;1.20;;;;;;;16.73;43.93;99016.59;5020449;28;20025;-96
2021/12/04 10:38:51;;;;;;;8.63;1.45;;;;;;;17.47;44.00;99021.22;5258610;22;20116;-92
2021/12/04 10:41:17;;;;;;;8.98;1.52;;;;;;;17.88;42.33;99020.78;5031170;28;20288;-93
2021/12/04 10:43:43;;;;;;;7.25;1.40;;;;;;;17.64;43.09;99020.03;5000486;28;20030;-92
2021/12/04 10:46:15;;;;;;;10.93;2.60;;;;;;;18.35;41.56;99011.50;4999697;28;20113;-93
2021/12/04 10:49:03;;;;;;;7.10;1.98;;;;;;;17.52;42.01;99021.50;5027825;28;20034;-94
2021/12/04 10:51:52;;;;;;;6.38;1.35;;;;;;;16.54;43.41;99002.81;5100163;22;20127;-95
2021/12/04 10:54:26;;;;;;;12.90;1.45;;;;;;;17.05;43.34;99003.06;5016045;28;20032;-95
2021/12/04 11:00:11;;;;;;;9.32;1.20;;;;;;;17.42;43.14;98998.72;4993102;28;20052;-93
2021/12/04 11:02:43;;;;;;;8.63;1.35;;;;;;;17.67;41.81;98986.97;5013217;28;20538;-92
2021/12/04 11:20:16;;;;;;;7.53;1.55;;;;;;;17.75;41.88;98979.75;5012550;28;20040;-94
2021/12/04 11:25:37;;;;;;;8.75;1.83;;;;;;;16.91;42.83;98993.25;5005109;28;20362;-92
2021/12/04 11:39:10;;;;;;;12.60;1.77;;;;;;;16.72;42.81;98985.78;4994577;28;20085;-91
2021/12/04 11:44:08;;;;;;;12.80;1.85;;;;;;;17.24;42.28;98990.31;5000075;28;20373;-90
2021/12/04 11:46:56;;;;;;;13.65;1.90;;;;;;;16.29;43.56;98973.03;5005929;28;20030;-88
2021/12/04 11:49:26;;;;;;;7.28;1.52;;;;;;;16.52;43.10;98983.59;5000410;28;20022;-91
2021/12/04 11:51:57;;;;;;;5.70;1.50;;;;;;;16.80;42.25;98975.09;5009617;28;20026;-89
2021/12/04 11:54:31;;;;;;;10.05;1.60;;;;;;;16.64;43.39;98970.75;4992178;28;20026;-90
2021/12/04 11:57:27;;;;;;;11.02;2.03;;;;;;;16.48;43.32;98987.63;5004054;28;20026;-90
2021/12/04 11:59:52;;;;;;;8.48;2.25;;;;;;;15.63;45.72;98989.22;4999257;28;20030;-91
2021/12/04 12:02:22;;;;;;;5.75;0.90;;;;;;;16.32;43.12;98983.25;5001426;28;20037;-90
2021/12/04 12:04:53;;;;;;;7.43;1.83;;;;;;;16.63;43.23;98964.66;5001082;28;20110;-92
2021/12/04 12:07:25;;;;;;;10.25;1.67;;;;;;;16.34;43.00;98975.13;5007178;28;20053;-91
2021/12/04 12:10:10;;;;;;;10.10;1.58;;;;;;;17.01;43.25;98972.59;5002689;28;20103;-92
2021/12/04 12:12:39;;;;;;;10.38;1.70;;;;;;;17.16;43.50;98974.44;5000716;28;20527;-90
2021/12/04 12:15:17;;;;;;;4.63;1.13;;;;;;;17.02;41.60;98978.72;4996764;28;20069;-90
2021/12/04 12:17:43;;;;;;;8.60;1.60;;;;;;;17.09;42.95;98989.44;5011299;28;20026;-92
2021/12/04 12:20:16;;;;;;;7.18;1.40;;;;;;;17.13;42.55;98986.25;5013578;28;20034;-91
2021/12/04 12:31:53;;;;;;;6.57;1.50;;;;;;;16.68;42.09;98976.53;5005890;28;20052;-93
2021/12/04 12:37:23;;;;;;;8.95;1.85;;;;;;;16.71;42.13;98976.19;4986061;28;20496;-93
2021/12/04 12:39:59;;;;;;;8.05;1.42;;;;;;;16.53;43.51;98985.28;5007763;28;20108;-92
2021/12/04 12:42:28;;;;;;;14.60;3.03;;;;;;;16.39;44.54;98975.41;5006510;28;20558;-91
2021/12/04 12:44:54;;;;;;;10.85;1.50;;;;;;;16.02;43.41;98977.81;5007531;28;20394;-93
2021/12/04 12:47:21;;;;;;;10.13;1.38;;;;;;;16.43;43.84;98980.22;5008944;28;20038;-93
2021/12/04 12:49:48;;;;;;;8.23;1.33;;;;;;;16.21;43.48;98962.47;4999841;28;20022;-96
2021/12/04 12:52:26;;;;;;;9.43;1.15;;;;;;;15.60;43.48;98971.06;5020663;28;20050;-93
2021/12/04 12:55:00;;;;;;;5.22;1.92;;;;;;;14.83;45.70;98965.44;5012073;28;20549;-90
2021/12/04 12:57:31;;;;;;;8.95;1.63;;;;;;;15.21;46.16;98973.66;5012325;28;20033;-91
2021/12/04 13:14:15;;;;;;;9.75;1.35;;;;;;;14.12;46.40;98988.84;5022795;28;20108;-95
2021/12/04 13:16:50;;;;;;;5.47;1.17;;;;;;;14.71;46.54;98985.28;5019001;28;20033;-93
2021/12/04 13:19:19;;;;;;;6.53;1.45;;;;;;;14.98;44.87;98987.56;5000735;28;20542;-93
2021/12/04 13:21:53;;;;;;;10.52;1.67;;;;;;;14.15;45.60;98992.97;5000762;28;20031;-92
2021/12/04 13:24:23;;;;;;;6.72;1.30;;;;;;;13.51;47.02;98979.38;5013358;28;20045;-91
2021/12/04 13:26:52;;;;;;;11.00;1.17;;;;;;;13.97;45.47;98985.16;5015512;28;20560;-95
2021/12/04 13:29:22;;;;;;;9.95;2.30;;;;;;;14.04;46.38;98986.16;5011661;28;20026;-93
2021/12/04 13:31:51;;;;;;;7.60;1.20;;;;;;;13.91;46.32;98985.81;5013082;28;20365;-92
2021/12/04 13:34:25;;;;;;;11.60;1.80;;;;;;;14.01;46.78;98974.13;4999167;28;20022;-95
2021/12/04 13:36:53;;;;;;;8.05;1.30;;;;;;;13.77;47.41;98974.88;5017582;28;20097;-95
2021/12/04 13:39:19;;;;;;;7.63;1.20;;;;;;;13.61;47.43;98970.38;5016348;28;20021;-95
2021/12/04 13:41:47;;;;;;;15.07;1.77;;;;;;;13.88;47.94;98974.59;5016820;28;20117;-94
2021/12/04 13:44:14;;;;;;;10.48;2.28;;;;;;;13.86;47.90;98973.94;5015491;28;20036;-96
2021/12/04 13:47:01;;;;;;;16.85;1.77;;;;;;;13.56;47.84;98974.47;5014592;28;20026;-93
2021/12/04 13:50:06;;;;;;;14.98;1.80;;;;;;;13.67;47.33;98969.72;5016538;28;20050;-90
2021/12/04 13:52:36;;;;;;;13.23;1.35;;;;;;;13.57;47.97;98968.22;5011508;28;20037;-92
2021/12/04 13:55:09;;;;;;;14.00;2.03;;;;;;;13.96;48.03;98957.09;5009931;28;20033;-93
2021/12/04 13:57:39;;;;;;;11.77;1.70;;;;;;;14.23;48.06;98959.47;5013366;28;20026;-96
2021/12/04 14:00:07;;;;;;;6.93;1.73;;;;;;;14.12;47.01;98962.44;5016746;28;20113;-90
2021/12/04 14:02:33;;;;;;;11.00;1.80;;;;;;;14.05;46.77;98949.06;5021609;28;20057;-96
2021/12/04 14:05:05;;;;;;;8.82;1.83;;;;;;;13.57;47.13;98947.94;5020987;28;20038;-96
2021/12/04 14:07:32;;;;;;;13.68;1.55;;;;;;;13.90;48.19;98945.38;5019419;28;20022;-96
2021/12/04 14:09:57;;;;;;;9.70;2.30;;;;;;;13.29;46.45;98940.25;5012568;28;20043;-95
2021/12/04 14:12:23;;;;;;;13.82;1.65;;;;;;;13.21;47.54;98937.53;5020119;28;20029;-96
2021/12/04 14:14:49;;;;;;;6.88;1.00;;;;;;;12.84;49.01;98937.81;5021181;28;20029;-94
2021/12/04 14:17:18;;;;;;;7.07;1.27;;;;;;;12.96;48.24;98944.47;5013297;28;20060;-95
2021/12/04 14:19:45;;;;;;;8.70;1.50;;;;;;;12.81;48.06;98952.09;5008219;28;20030;-93
2021/12/04 14:22:17;;;;;;;14.02;1.73;;;;;;;12.42;49.02;98952.47;5016041;28;20116;-92
2021/12/04 14:24:56;;;;;;;;;;;;;;;12.47;49.52;98957.28;5011321;28;20070;-93
2021/12/04 14:27:25;;;;;;;9.85;1.40;;;;;;;12.38;48.84;98961.66;5016548;28;20361;-96
2021/12/04 14:29:54;;;;;;;7.85;1.60;;;;;;;12.52;49.05;98957.66;5021766;28;20029;-95
2021/12/04 14:32:25;;;;;;;11.07;1.90;;;;;;;12.05;49.98;98942.13;5067864;22;20046;-96
2021/12/04 14:35:22;;;;;;;8.73;1.43;;;;;;;12.33;50.53;98947.31;5229506;22;20046;-95
2021/12/04 14:37:50;;;;;;;8.25;1.63;;;;;;;12.26;49.92;98941.78;5004916;28;20049;-96